createdAt,value
2022-11-24T00:01:21.675Z,7.12
2022-11-24T00:04:29.639Z,6.30
2022-11-24T00:07:39.627Z,6.77
2022-11-24T00:10:47.640Z,6.78
2022-11-24T00:13:57.886Z,6.10
2022-11-24T00:17:12.695Z,6.47
2022-11-24T00:20:21.680Z,6.40
2022-11-24T00:23:36.682Z,7.67
2022-11-24T00:26:44.707Z,9.10
2022-11-24T00:29:53.305Z,9.15
2022-11-24T00:33:01.689Z,9.63
2022-11-24T00:43:39.657Z,10.15
2022-11-24T00:46:54.723Z,10.85
2022-11-24T00:50:03.702Z,10.52
2022-11-24T00:53:18.699Z,11.67
2022-11-24T00:56:26.722Z,11.53
2022-11-24T00:59:38.315Z,11.02
2022-11-24T01:02:46.736Z,10.55
2022-11-24T01:06:20.688Z,10.23
2022-11-24T01:09:29.638Z,10.03
2022-11-24T01:12:38.271Z,9.87
2022-11-24T01:15:46.712Z,9.40
2022-11-24T01:19:02.720Z,9.35
2022-11-24T01:22:11.754Z,9.38
2022-11-24T01:25:26.662Z,8.83
2022-11-24T01:28:47.174Z,9.47
2022-11-24T01:31:56.385Z,9.73
2022-11-24T01:35:04.689Z,9.63
2022-11-24T01:38:19.719Z,9.57
2022-11-24T01:41:30.667Z,9.17
2022-11-24T01:44:47.686Z,8.93
2022-11-24T01:47:55.718Z,8.40
2022-11-24T01:51:17.674Z,8.50
2022-11-24T01:54:26.768Z,9.73
2022-11-24T01:57:47.701Z,9.37
2022-11-24T02:00:50.961Z,9.63
2022-11-24T02:04:07.714Z,9.68
2022-11-24T02:07:12.454Z,9.45
2022-11-24T02:10:28.686Z,9.23
2022-11-24T02:13:37.698Z,9.00
2022-11-24T02:16:55.713Z,10.90
2022-11-24T02:20:07.707Z,9.70
2022-11-24T02:23:37.464Z,9.77
2022-11-24T02:26:52.714Z,9.70
2022-11-24T02:30:01.395Z,11.17
2022-11-24T02:33:18.701Z,13.33
2022-11-24T02:36:33.720Z,10.23
2022-11-24T02:39:48.698Z,10.38
2022-11-24T02:42:54.358Z,11.12
2022-11-24T02:46:08.754Z,11.53
2022-11-24T02:49:16.706Z,13.00
2022-11-24T02:52:32.736Z,11.18
2022-11-24T02:55:34.492Z,11.63
2022-11-24T02:58:48.773Z,12.75
2022-11-24T03:01:51.021Z,12.20
2022-11-24T03:05:05.716Z,13.77
2022-11-24T03:08:13.745Z,13.55
2022-11-24T03:11:28.731Z,18.62
2022-11-24T03:14:39.243Z,16.83
2022-11-24T03:17:48.690Z,15.70
2022-11-24T03:20:57.723Z,18.40
2022-11-24T03:24:06.340Z,17.73
2022-11-24T03:27:14.771Z,17.25
2022-11-24T03:30:29.784Z,17.95
2022-11-24T03:33:31.584Z,17.47
2022-11-24T03:36:46.759Z,17.73
2022-11-24T03:39:55.737Z,18.60
2022-11-24T03:43:04.453Z,18.65
2022-11-24T03:46:12.769Z,17.95
2022-11-24T03:49:27.774Z,18.57
2022-11-24T03:52:30.686Z,18.60
2022-11-24T03:55:45.742Z,18.58
2022-11-24T03:58:47.556Z,19.33
2022-11-24T04:02:02.830Z,19.42
2022-11-24T04:05:18.763Z,20.07
2022-11-24T04:08:27.286Z,20.23
2022-11-24T04:11:35.758Z,19.75
2022-11-24T04:14:50.751Z,18.73
2022-11-24T04:18:01.728Z,19.42
2022-11-24T04:21:10.313Z,22.33
2022-11-24T04:24:21.782Z,20.27
2022-11-24T04:27:38.734Z,19.48
2022-11-24T04:30:47.832Z,20.17
2022-11-24T04:33:56.441Z,20.70
2022-11-24T04:37:04.739Z,22.40
2022-11-24T04:40:13.522Z,19.57
2022-11-24T04:43:21.798Z,20.12
2022-11-24T04:46:36.864Z,22.10
2022-11-24T04:49:47.734Z,21.50
2022-11-24T04:53:02.799Z,20.20
2022-11-24T04:56:06.117Z,22.60
2022-11-24T04:59:20.774Z,20.37
2022-11-24T05:02:29.485Z,21.45
2022-11-24T05:05:44.826Z,21.48
2022-11-24T05:08:53.383Z,22.07
2022-11-24T05:12:01.780Z,22.43
2022-11-24T05:15:10.706Z,22.62
2022-11-24T05:18:20.829Z,23.40
2022-11-24T05:21:35.805Z,24.85
2022-11-24T05:24:50.813Z,24.43
2022-11-24T05:28:01.499Z,22.57
2022-11-24T05:31:10.864Z,23.35
2022-11-24T05:34:19.434Z,21.77
2022-11-24T05:37:27.866Z,23.70
2022-11-24T05:40:43.837Z,21.93
2022-11-24T05:43:51.848Z,24.80
2022-11-24T05:47:06.841Z,22.87
2022-11-24T05:50:18.491Z,20.95
2022-11-24T05:53:26.798Z,21.52
2022-11-24T05:56:35.415Z,22.20
2022-11-24T05:59:43.787Z,20.33
2022-11-24T06:02:52.634Z,18.45
2022-11-24T06:06:07.785Z,19.02
2022-11-24T06:09:16.626Z,19.70
2022-11-24T06:12:31.817Z,17.27
2022-11-24T06:15:40.401Z,16.17
2022-11-24T06:18:48.815Z,21.95
2022-11-24T06:21:57.593Z,17.48
2022-11-24T06:25:05.810Z,18.00
2022-11-24T06:28:20.879Z,17.23
2022-11-24T06:31:22.749Z,18.77
2022-11-24T06:34:37.822Z,16.92
2022-11-24T06:37:46.388Z,17.62
2022-11-24T06:40:54.898Z,16.95
2022-11-24T06:44:10.890Z,16.40
2022-11-24T06:47:25.798Z,15.47
2022-11-24T06:50:33.968Z,18.02
2022-11-24T06:53:48.846Z,16.58
2022-11-24T06:56:56.344Z,14.85
2022-11-24T07:00:12.858Z,16.90
2022-11-24T07:03:35.197Z,17.43
2022-11-24T07:06:50.851Z,16.83
2022-11-24T07:10:05.902Z,18.73
2022-11-24T07:13:14.410Z,17.15
2022-11-24T07:16:25.935Z,17.60
2022-11-24T07:19:40.864Z,19.43
2022-11-24T07:22:49.802Z,17.02
2022-11-24T07:26:01.211Z,18.33
2022-11-24T07:29:20.847Z,18.62
2022-11-24T07:32:28.843Z,16.50
2022-11-24T07:35:43.876Z,17.37
2022-11-24T07:38:52.921Z,19.08
2022-11-24T07:42:01.729Z,17.52
2022-11-24T07:45:09.957Z,16.75
2022-11-24T07:48:18.428Z,14.80
2022-11-24T07:51:26.878Z,18.63
2022-11-24T07:54:41.839Z,17.23
2022-11-24T07:57:49.867Z,17.75
2022-11-24T08:01:05.967Z,23.60
2022-11-24T08:04:08.240Z,24.57
2022-11-24T08:07:29.928Z,18.63
2022-11-24T08:10:32.197Z,17.80
2022-11-24T08:13:47.905Z,14.25
2022-11-24T08:16:55.968Z,13.55
2022-11-24T08:20:05.174Z,15.57
2022-11-24T08:23:13.910Z,24.30
2022-11-24T08:26:29.844Z,18.33
2022-11-24T08:29:37.882Z,15.52
2022-11-24T08:32:52.927Z,14.85
2022-11-24T08:35:58.143Z,15.03
2022-11-24T08:39:13.014Z,15.40
2022-11-24T08:42:21.626Z,14.60
2022-11-24T08:45:41.418Z,14.55
2022-11-24T08:48:53.446Z,16.23
2022-11-24T08:52:04.935Z,16.63
2022-11-24T08:55:13.582Z,13.37
2022-11-24T08:58:21.918Z,23.08
2022-11-24T09:01:38.068Z,33.78
2022-11-24T09:04:52.976Z,27.23
2022-11-24T09:08:04.678Z,24.70
2022-11-24T09:11:16.926Z,17.80
2022-11-24T09:14:25.752Z,15.88
2022-11-24T09:17:33.899Z,15.35
2022-11-24T09:20:42.845Z,14.35
2022-11-24T09:23:54.141Z,16.23
2022-11-24T09:27:02.501Z,13.90
2022-11-24T09:30:11.172Z,14.13
2022-11-24T09:33:20.742Z,16.15
2022-11-24T09:36:35.920Z,19.70
2022-11-24T09:39:44.626Z,17.77
2022-11-24T09:43:10.115Z,15.30
2022-11-24T09:46:39.032Z,16.70
2022-11-24T09:50:06.011Z,16.02
2022-11-24T09:53:36.009Z,16.83
2022-11-24T09:57:06.131Z,19.47
2022-11-24T10:00:22.000Z,17.30
2022-11-24T10:03:46.165Z,17.40
2022-11-24T10:07:29.245Z,15.02
2022-11-24T10:10:49.884Z,14.40
2022-11-24T10:14:29.920Z,22.43
2022-11-24T10:17:56.960Z,15.20
2022-11-24T10:21:31.894Z,14.20
2022-11-24T10:25:05.007Z,16.23
2022-11-24T10:28:13.290Z,17.75
2022-11-24T10:31:42.975Z,17.33
2022-11-24T10:34:53.882Z,17.00
2022-11-24T10:38:30.521Z,14.70
2022-11-24T10:41:57.929Z,15.85
2022-11-24T10:45:14.545Z,16.77
2022-11-24T10:48:31.963Z,16.33
2022-11-24T10:52:06.003Z,13.47
2022-11-24T10:55:15.994Z,16.48
2022-11-24T10:58:31.552Z,13.35
2022-11-24T11:01:43.045Z,14.73
2022-11-24T11:05:25.994Z,15.73
2022-11-24T11:08:34.679Z,15.20
2022-11-24T11:11:49.202Z,13.93
2022-11-24T11:14:51.327Z,10.02
2022-11-24T11:18:08.991Z,14.05
2022-11-24T11:21:37.920Z,13.77
2022-11-24T11:24:49.042Z,14.13
2022-11-24T11:28:18.703Z,13.85
2022-11-24T11:31:28.453Z,12.93
2022-11-24T11:34:37.172Z,12.90
2022-11-24T11:37:46.034Z,12.90
2022-11-24T11:41:00.966Z,12.23
2022-11-24T11:44:34.343Z,11.90
2022-11-24T11:48:09.232Z,11.82
2022-11-24T11:51:38.089Z,10.55
2022-11-24T11:55:21.035Z,12.37
2022-11-24T11:58:46.687Z,13.23
2022-11-24T12:02:20.180Z,10.70
2022-11-24T12:05:54.028Z,13.05
2022-11-24T12:09:22.114Z,11.85
2022-11-24T12:13:10.003Z,10.33
2022-11-24T12:16:35.084Z,9.17
2022-11-24T12:20:02.017Z,10.13
2022-11-24T12:23:37.998Z,9.23
2022-11-24T12:27:00.151Z,7.78
2022-11-24T12:30:20.114Z,7.80
2022-11-24T12:33:52.327Z,9.73
2022-11-24T12:37:19.766Z,9.23
2022-11-24T12:40:55.230Z,7.68
2022-11-24T12:44:48.983Z,8.20
2022-11-24T12:48:21.985Z,9.73
2022-11-24T12:51:31.317Z,7.57
2022-11-24T12:54:50.075Z,9.23
2022-11-24T12:58:10.641Z,7.87
2022-11-24T13:01:48.368Z,8.18
2022-11-24T13:05:08.136Z,7.80
2022-11-24T13:08:17.432Z,8.63
2022-11-24T13:11:41.134Z,6.68
2022-11-24T13:14:57.012Z,7.15
2022-11-24T13:18:07.185Z,8.48
2022-11-24T13:21:38.062Z,8.70
2022-11-24T13:25:19.031Z,8.37
2022-11-24T13:29:01.881Z,7.70
2022-11-24T13:32:58.078Z,7.03
2022-11-24T13:36:38.116Z,9.05
2022-11-24T13:39:58.129Z,6.83
2022-11-24T13:43:20.435Z,9.07
2022-11-24T13:46:58.676Z,7.15
2022-11-24T13:50:17.086Z,6.22
2022-11-24T13:53:42.078Z,8.65
2022-11-24T13:56:43.832Z,7.10
2022-11-24T14:00:08.171Z,5.53
2022-11-24T14:03:27.117Z,8.45
2022-11-24T14:06:55.106Z,8.98
2022-11-24T14:09:57.926Z,7.40
2022-11-24T14:13:37.086Z,8.23
2022-11-24T14:16:45.892Z,9.00
2022-11-24T14:19:57.146Z,7.37
2022-11-24T14:23:17.094Z,7.15
2022-11-24T14:26:32.634Z,8.38
2022-11-24T14:30:02.176Z,7.03
2022-11-24T14:33:18.093Z,9.43
2022-11-24T14:36:33.113Z,7.43
2022-11-24T14:39:42.985Z,6.85
2022-11-24T14:42:57.058Z,9.43
2022-11-24T14:46:09.765Z,8.13
2022-11-24T14:49:25.066Z,7.90
2022-11-24T14:52:41.082Z,9.20
2022-11-24T14:55:43.214Z,7.87
2022-11-24T14:58:59.317Z,6.43
2022-11-24T15:02:34.173Z,6.07
2022-11-24T15:06:01.038Z,7.27
2022-11-24T15:09:29.080Z,8.40
2022-11-24T15:12:55.109Z,8.23
2022-11-24T15:16:03.181Z,8.98
2022-11-24T15:19:23.138Z,9.33
2022-11-24T15:22:45.858Z,8.60
2022-11-24T15:26:03.063Z,10.00
2022-11-24T15:29:12.945Z,9.10
2022-11-24T15:32:22.086Z,10.52
2022-11-24T15:35:32.728Z,8.47
2022-11-24T15:38:41.239Z,9.93
2022-11-24T15:41:56.116Z,8.80
2022-11-24T15:44:57.987Z,9.80
2022-11-24T15:48:17.759Z,13.85
2022-11-24T15:51:27.150Z,9.80
2022-11-24T15:54:35.926Z,9.50
2022-11-24T15:57:44.057Z,10.75
2022-11-24T16:00:52.745Z,9.90
2022-11-24T16:04:08.090Z,12.27
2022-11-24T16:07:19.127Z,10.57
2022-11-24T16:10:38.090Z,12.33
2022-11-24T16:13:40.255Z,10.60
2022-11-24T16:16:55.081Z,11.45
2022-11-24T16:20:03.166Z,10.65
2022-11-24T16:23:18.187Z,11.83
2022-11-24T16:26:33.155Z,12.53
2022-11-24T16:29:38.327Z,11.32
2022-11-24T16:32:53.105Z,11.77
2022-11-24T16:36:01.164Z,12.15
2022-11-24T16:39:09.818Z,11.90
2022-11-24T16:42:18.537Z,11.00
2022-11-24T16:45:38.466Z,11.60
2022-11-24T16:48:51.420Z,18.95
2022-11-24T16:52:00.094Z,10.60
2022-11-24T16:55:09.155Z,13.03
2022-11-24T16:58:25.105Z,22.17
2022-11-24T17:01:27.277Z,11.48
2022-11-24T17:04:42.143Z,11.52
2022-11-24T17:07:50.443Z,11.80
2022-11-24T17:11:11.401Z,10.43
2022-11-24T17:14:26.190Z,10.83
2022-11-24T17:17:28.238Z,13.25
2022-11-24T17:20:43.160Z,12.30
2022-11-24T17:23:45.340Z,15.65
2022-11-24T17:27:00.131Z,11.33
2022-11-24T17:30:08.121Z,11.60
2022-11-24T17:33:16.762Z,12.00
2022-11-24T17:36:32.124Z,12.20
2022-11-24T17:39:34.002Z,12.18
2022-11-24T17:42:49.286Z,12.47
2022-11-24T17:46:01.340Z,12.60
2022-11-24T17:49:16.210Z,11.77
2022-11-24T17:52:18.126Z,12.27
2022-11-24T17:55:33.202Z,11.70
2022-11-24T17:58:41.323Z,11.00
2022-11-24T18:01:58.299Z,12.03
2022-11-24T18:05:07.174Z,13.02
2022-11-24T18:08:29.193Z,12.90
2022-11-24T18:11:38.200Z,11.27
2022-11-24T18:14:53.297Z,11.20
2022-11-24T18:18:02.234Z,11.87
2022-11-24T18:21:16.321Z,12.52
2022-11-24T18:24:25.158Z,14.13
2022-11-24T18:27:33.747Z,10.82
2022-11-24T18:30:43.186Z,13.00
2022-11-24T18:33:51.805Z,11.83
2022-11-24T18:37:00.167Z,11.57
2022-11-24T18:40:16.204Z,11.00
2022-11-24T18:43:17.963Z,11.30
2022-11-24T18:46:33.237Z,11.73
2022-11-24T18:49:35.272Z,10.83
2022-11-24T18:52:57.197Z,13.15
2022-11-24T18:56:13.158Z,13.57
2022-11-24T18:59:21.277Z,12.37
2022-11-24T19:02:29.946Z,12.18
2022-11-24T19:05:47.237Z,11.77
2022-11-24T19:09:04.225Z,12.45
2022-11-24T19:12:13.797Z,13.97
2022-11-24T19:15:22.165Z,12.87
2022-11-24T19:18:30.934Z,11.75
2022-11-24T19:21:42.192Z,12.00
2022-11-24T19:24:50.814Z,10.65
2022-11-24T19:27:59.196Z,12.60
2022-11-24T19:31:10.905Z,12.13
2022-11-24T19:34:19.169Z,11.65
2022-11-24T19:37:28.546Z,11.23
2022-11-24T19:40:37.199Z,12.02
2022-11-24T19:43:53.182Z,12.70
2022-11-24T19:47:01.155Z,11.43
2022-11-24T19:50:17.195Z,11.82
2022-11-24T19:53:19.046Z,12.57
2022-11-24T19:56:37.230Z,11.35
2022-11-24T19:59:52.198Z,13.37
2022-11-24T20:03:01.311Z,12.53
2022-11-24T20:06:23.268Z,13.35
2022-11-24T20:09:38.238Z,11.98
2022-11-24T20:12:53.193Z,12.73
2022-11-24T20:16:01.322Z,11.63
2022-11-24T20:19:12.481Z,11.80
2022-11-24T20:22:21.213Z,12.65
2022-11-24T20:25:36.242Z,10.90
2022-11-24T20:28:38.399Z,11.23
2022-11-24T20:31:56.234Z,11.80
2022-11-24T20:34:57.986Z,12.77
2022-11-24T20:38:15.222Z,12.18
2022-11-24T20:41:27.629Z,11.65
2022-11-24T20:44:42.215Z,12.07
2022-11-24T20:47:44.061Z,12.50
2022-11-24T20:50:59.185Z,11.70
2022-11-24T20:54:04.642Z,11.90
2022-11-24T20:57:19.478Z,11.77
2022-11-24T21:00:21.742Z,12.90
2022-11-24T21:03:39.800Z,12.47
2022-11-24T21:06:51.741Z,12.20
2022-11-24T21:10:06.261Z,14.90
2022-11-24T21:13:08.374Z,17.67
2022-11-24T21:16:26.276Z,11.68
2022-11-24T21:19:36.017Z,11.40
2022-11-24T21:22:51.228Z,12.27
2022-11-24T21:25:52.967Z,11.40
2022-11-24T21:29:07.232Z,10.95
2022-11-24T21:32:15.222Z,11.23
2022-11-24T21:35:23.789Z,12.70
2022-11-24T21:38:39.201Z,10.77
2022-11-24T21:41:48.245Z,12.07
2022-11-24T21:45:03.218Z,12.10
2022-11-24T21:48:05.581Z,12.05
2022-11-24T21:51:22.263Z,13.43
2022-11-24T21:54:39.626Z,12.73
2022-11-24T21:57:48.214Z,12.37
2022-11-24T22:01:06.604Z,11.32
2022-11-24T22:04:21.251Z,12.07
2022-11-24T22:07:32.060Z,12.23
2022-11-24T22:10:48.286Z,11.57
2022-11-24T22:13:52.126Z,11.57
2022-11-24T22:17:07.262Z,11.85
2022-11-24T22:20:22.335Z,12.18
2022-11-24T22:23:31.357Z,11.50
2022-11-24T22:26:46.366Z,11.50
2022-11-24T22:29:54.425Z,11.93
2022-11-24T22:33:02.874Z,12.57
2022-11-24T22:36:11.257Z,12.75
2022-11-24T22:39:35.266Z,12.60
2022-11-24T22:42:43.254Z,11.70
2022-11-24T22:45:54.892Z,12.52
2022-11-24T22:49:09.226Z,12.50
2022-11-24T22:52:17.305Z,12.52
2022-11-24T22:55:25.937Z,11.43
2022-11-24T22:58:34.214Z,11.77
2022-11-24T23:01:49.297Z,11.50
2022-11-24T23:04:57.327Z,12.35
2022-11-24T23:08:12.558Z,12.52
2022-11-24T23:11:29.128Z,12.07
2022-11-24T23:14:46.283Z,12.13
2022-11-24T23:17:50.289Z,11.95
2022-11-24T23:21:18.382Z,11.82
2022-11-24T23:24:26.894Z,11.95
2022-11-24T23:27:41.273Z,11.57
2022-11-24T23:30:43.455Z,24.73
2022-11-24T23:33:58.278Z,12.27
2022-11-24T23:37:06.287Z,12.48
2022-11-24T23:40:21.334Z,12.82
2022-11-24T23:43:23.689Z,12.30
2022-11-24T23:46:38.293Z,10.93
2022-11-24T23:49:42.183Z,11.98
2022-11-24T23:52:57.347Z,11.40
2022-11-24T23:55:59.217Z,11.43
2022-11-24T23:59:17.357Z,11.80
